createdAt,value
2024-01-18T00:00:09.352Z,16.40
2024-01-18T00:00:41.100Z,18.30
2024-01-18T00:01:12.821Z,17.88
2024-01-18T00:01:50.434Z,18.10
2024-01-18T00:02:23.759Z,16.85
2024-01-18T00:02:55.383Z,17.08
2024-01-18T00:03:27.194Z,16.92
2024-01-18T00:03:59.756Z,17.67
2024-01-18T00:04:31.376Z,18.75
2024-01-18T00:05:02.994Z,17.55
2024-01-18T00:05:34.588Z,17.77
2024-01-18T00:06:06.892Z,17.42
2024-01-18T00:06:38.626Z,18.80
2024-01-18T00:07:10.401Z,17.13
2024-01-18T00:07:42.012Z,17.67
2024-01-18T00:08:13.559Z,18.90
2024-01-18T00:08:45.109Z,18.60
2024-01-18T00:09:16.875Z,19.67
2024-01-18T00:09:48.518Z,19.80
2024-01-18T00:10:27.711Z,19.17
2024-01-18T00:11:00.775Z,20.27
2024-01-18T00:11:32.328Z,19.02
2024-01-18T00:12:04.217Z,18.10
2024-01-18T00:12:37.780Z,19.70
2024-01-18T00:13:09.494Z,18.27
2024-01-18T00:13:41.042Z,18.75
2024-01-18T00:14:12.575Z,19.00
2024-01-18T00:14:44.284Z,18.17
2024-01-18T00:15:16.072Z,18.13
2024-01-18T00:15:47.630Z,19.23
2024-01-18T00:16:19.184Z,18.15
2024-01-18T00:16:50.758Z,19.02
2024-01-18T00:17:22.370Z,18.17
2024-01-18T00:17:54.260Z,17.77
2024-01-18T00:18:26.139Z,17.88
2024-01-18T00:18:58.545Z,19.02
2024-01-18T00:19:30.431Z,18.05
2024-01-18T00:20:02.048Z,17.95
2024-01-18T00:20:33.656Z,17.70
2024-01-18T00:21:05.792Z,17.52
2024-01-18T00:21:37.897Z,18.83
2024-01-18T00:22:09.528Z,18.10
2024-01-18T00:22:41.195Z,17.70
2024-01-18T00:23:13.048Z,18.17
2024-01-18T00:23:44.610Z,18.95
2024-01-18T00:24:16.432Z,16.88
2024-01-18T00:24:47.996Z,18.45
2024-01-18T00:25:20.647Z,17.02
2024-01-18T00:25:52.229Z,18.00
2024-01-18T00:26:23.777Z,19.60
2024-01-18T00:26:55.436Z,17.75
2024-01-18T00:27:27.122Z,18.23
2024-01-18T00:27:58.784Z,17.55
2024-01-18T00:28:30.328Z,18.42
2024-01-18T00:29:02.129Z,18.45
2024-01-18T00:29:34.473Z,19.13
2024-01-18T00:30:06.812Z,19.10
2024-01-18T00:30:39.053Z,18.25
2024-01-18T00:31:10.633Z,18.95
2024-01-18T00:31:42.283Z,19.17
2024-01-18T00:32:13.908Z,18.38
2024-01-18T00:32:45.986Z,17.08
2024-01-18T00:33:17.681Z,18.95
2024-01-18T00:33:49.419Z,17.65
2024-01-18T00:34:21.017Z,18.30
2024-01-18T00:34:53.017Z,18.48
2024-01-18T00:35:24.626Z,18.65
2024-01-18T00:35:56.325Z,18.05
2024-01-18T00:36:28.695Z,19.70
2024-01-18T00:37:00.423Z,18.98
2024-01-18T00:37:32.049Z,18.80
2024-01-18T00:38:04.069Z,18.20
2024-01-18T00:38:35.610Z,19.05
2024-01-18T00:39:11.767Z,19.23
2024-01-18T00:39:43.977Z,18.85
2024-01-18T00:40:15.633Z,17.70
2024-01-18T00:40:47.342Z,18.95
2024-01-18T00:41:18.911Z,18.90
2024-01-18T00:41:50.623Z,20.83
2024-01-18T00:42:22.273Z,17.88
2024-01-18T00:42:54.385Z,20.83
2024-01-18T00:43:26.141Z,18.38
2024-01-18T00:43:57.666Z,17.52
2024-01-18T00:44:29.243Z,19.33
2024-01-18T00:45:00.893Z,17.95
2024-01-18T00:45:32.479Z,18.08
2024-01-18T00:46:05.335Z,19.27
2024-01-18T00:46:36.937Z,18.23
2024-01-18T00:47:08.522Z,18.02
2024-01-18T00:47:40.059Z,16.63
2024-01-18T00:48:11.734Z,17.35
2024-01-18T00:48:43.501Z,18.80
2024-01-18T00:49:15.359Z,17.63
2024-01-18T00:49:47.166Z,16.92
2024-01-18T00:50:18.979Z,15.25
2024-01-18T00:50:50.793Z,17.42
2024-01-18T00:51:22.569Z,16.33
2024-01-18T00:51:54.207Z,16.70
2024-01-18T00:52:26.504Z,15.65
2024-01-18T00:52:58.116Z,16.23
2024-01-18T00:53:29.716Z,17.88
2024-01-18T00:54:03.418Z,16.92
2024-01-18T00:54:35.091Z,18.15
2024-01-18T00:55:07.859Z,17.92
2024-01-18T00:55:39.505Z,16.30
2024-01-18T00:56:11.462Z,18.27
2024-01-18T00:56:43.209Z,16.27
2024-01-18T00:57:15.077Z,16.88
2024-01-18T00:57:46.682Z,17.75
2024-01-18T00:58:18.317Z,16.98
2024-01-18T00:58:50.972Z,17.05
2024-01-18T00:59:22.720Z,17.08
2024-01-18T00:59:54.460Z,16.90
2024-01-18T01:00:26.046Z,18.55
2024-01-18T01:00:57.764Z,17.02
2024-01-18T01:01:29.393Z,17.30
2024-01-18T01:02:00.950Z,16.88
2024-01-18T01:02:32.564Z,18.20
2024-01-18T01:03:04.442Z,17.25
2024-01-18T01:03:36.347Z,18.55
2024-01-18T01:04:08.252Z,17.50
2024-01-18T01:04:39.910Z,18.77
2024-01-18T01:05:11.644Z,18.48
2024-01-18T01:05:43.316Z,19.15
2024-01-18T01:06:14.914Z,18.95
2024-01-18T01:06:46.508Z,18.55
2024-01-18T01:07:18.252Z,18.77
2024-01-18T01:07:49.867Z,19.48
2024-01-18T01:08:21.500Z,17.35
2024-01-18T01:08:53.193Z,19.15
2024-01-18T01:09:25.616Z,17.65
2024-01-18T01:09:57.469Z,18.52
2024-01-18T01:10:29.044Z,18.33
2024-01-18T01:11:06.676Z,18.05
2024-01-18T01:11:38.269Z,17.17
2024-01-18T01:12:09.924Z,16.88
2024-01-18T01:12:41.611Z,17.08
2024-01-18T01:13:13.340Z,18.70
2024-01-18T01:13:45.957Z,17.20
2024-01-18T01:14:17.672Z,18.45
2024-01-18T01:14:49.252Z,16.88
2024-01-18T01:15:21.094Z,17.27
2024-01-18T01:15:52.885Z,18.35
2024-01-18T01:16:25.379Z,18.60
2024-01-18T01:16:57.108Z,18.65
2024-01-18T01:17:28.748Z,18.90
2024-01-18T01:18:00.431Z,19.23
2024-01-18T01:18:32.235Z,16.85
2024-01-18T01:19:03.979Z,17.15
2024-01-18T01:19:35.873Z,17.83
2024-01-18T01:20:11.315Z,18.67
2024-01-18T01:20:42.883Z,18.25
2024-01-18T01:21:14.517Z,18.95
2024-01-18T01:21:46.106Z,19.28
2024-01-18T01:22:17.839Z,19.58
2024-01-18T01:22:49.395Z,18.90
2024-01-18T01:23:21.027Z,20.63
2024-01-18T01:23:53.012Z,19.25
2024-01-18T01:24:24.691Z,17.90
2024-01-18T01:24:56.301Z,19.45
2024-01-18T01:25:27.834Z,17.75
2024-01-18T01:25:59.572Z,18.50
2024-01-18T01:26:31.131Z,18.48
2024-01-18T01:27:02.808Z,17.75
2024-01-18T01:27:34.439Z,18.55
2024-01-18T01:28:06.582Z,17.67
2024-01-18T01:28:38.147Z,18.25
2024-01-18T01:29:11.833Z,16.75
2024-01-18T01:29:43.451Z,17.85
2024-01-18T01:30:15.698Z,17.77
2024-01-18T01:30:47.315Z,18.48
2024-01-18T01:31:18.926Z,20.16
2024-01-18T01:31:52.993Z,17.65
2024-01-18T01:32:24.609Z,18.05
2024-01-18T01:32:56.339Z,17.95
2024-01-18T01:33:29.462Z,19.48
2024-01-18T01:34:01.959Z,17.88
2024-01-18T01:34:33.798Z,19.00
2024-01-18T01:35:05.503Z,19.65
2024-01-18T01:35:37.067Z,19.80
2024-01-18T01:36:09.253Z,17.45
2024-01-18T01:36:40.844Z,19.17
2024-01-18T01:37:14.849Z,18.98
2024-01-18T01:37:46.682Z,20.55
2024-01-18T01:38:18.377Z,18.75
2024-01-18T01:38:49.919Z,19.77
2024-01-18T01:39:21.583Z,20.52
2024-01-18T01:39:53.207Z,18.52
2024-01-18T01:40:24.780Z,19.48
2024-01-18T01:40:56.467Z,19.98
2024-01-18T01:41:28.101Z,18.75
2024-01-18T01:41:59.700Z,19.60
2024-01-18T01:42:31.286Z,20.28
2024-01-18T01:43:02.854Z,19.80
2024-01-18T01:43:34.442Z,20.95
2024-01-18T01:44:06.514Z,21.25
2024-01-18T01:44:38.092Z,19.17
2024-01-18T01:45:10.438Z,19.80
2024-01-18T01:45:42.033Z,19.95
2024-01-18T01:46:14.049Z,19.15
2024-01-18T01:46:45.630Z,19.17
2024-01-18T01:47:17.205Z,19.10
2024-01-18T01:47:48.908Z,17.20
2024-01-18T01:48:20.858Z,20.68
2024-01-18T01:48:58.008Z,18.04
2024-01-18T01:49:29.833Z,18.83
2024-01-18T01:50:01.961Z,18.85
2024-01-18T01:50:33.588Z,18.48
2024-01-18T01:51:05.363Z,18.92
2024-01-18T01:51:49.180Z,18.05
2024-01-18T01:52:21.035Z,17.46
2024-01-18T01:52:52.609Z,19.40
2024-01-18T01:53:24.248Z,17.63
2024-01-18T01:53:55.881Z,18.42
2024-01-18T01:54:30.777Z,16.55
2024-01-18T01:55:03.581Z,18.40
2024-01-18T01:55:35.661Z,17.00
2024-01-18T01:56:07.233Z,18.10
2024-01-18T01:56:39.446Z,19.05
2024-01-18T01:57:11.023Z,19.20
2024-01-18T01:57:47.517Z,18.65
2024-01-18T01:58:20.576Z,17.45
2024-01-18T01:58:52.300Z,19.25
2024-01-18T01:59:24.273Z,18.38
2024-01-18T01:59:56.705Z,18.42
2024-01-18T02:00:28.404Z,18.95
2024-01-18T02:01:00.340Z,19.00
2024-01-18T02:01:32.133Z,19.40
2024-01-18T02:02:04.256Z,19.00
2024-01-18T02:02:35.801Z,18.55
2024-01-18T02:03:07.486Z,20.67
2024-01-18T02:03:39.139Z,20.08
2024-01-18T02:04:10.886Z,18.92
2024-01-18T02:04:43.414Z,19.13
2024-01-18T02:05:15.321Z,20.98
2024-01-18T02:05:47.290Z,19.75
2024-01-18T02:06:19.045Z,19.77
2024-01-18T02:06:52.807Z,20.42
2024-01-18T02:07:26.227Z,19.24
2024-01-18T02:07:57.832Z,20.58
2024-01-18T02:08:29.588Z,20.78
2024-01-18T02:09:05.022Z,20.76
2024-01-18T02:09:39.007Z,21.04
2024-01-18T02:10:11.235Z,20.20
2024-01-18T02:10:43.095Z,21.15
2024-01-18T02:11:15.289Z,20.38
2024-01-18T02:11:47.018Z,19.20
2024-01-18T02:12:19.501Z,20.63
2024-01-18T02:12:53.866Z,19.30
2024-01-18T02:13:26.011Z,18.83
2024-01-18T02:13:58.142Z,19.10
2024-01-18T02:14:29.768Z,19.06
2024-01-18T02:15:01.587Z,18.38
2024-01-18T02:15:35.357Z,20.02
2024-01-18T02:16:07.066Z,17.88
2024-01-18T02:16:38.663Z,18.35
2024-01-18T02:17:10.441Z,19.90
2024-01-18T02:17:42.006Z,18.00
2024-01-18T02:18:13.788Z,20.33
2024-01-18T02:18:45.614Z,18.40
2024-01-18T02:19:17.375Z,18.10
2024-01-18T02:19:49.225Z,19.45
2024-01-18T02:20:20.880Z,17.73
2024-01-18T02:20:52.458Z,18.65
2024-01-18T02:21:27.040Z,19.05
2024-01-18T02:22:00.359Z,18.88
2024-01-18T02:22:33.895Z,19.30
2024-01-18T02:23:06.435Z,17.00
2024-01-18T02:23:39.186Z,16.63
2024-01-18T02:24:23.838Z,18.88
2024-01-18T02:25:20.023Z,17.32
2024-01-18T02:25:51.797Z,17.94
2024-01-18T02:26:23.487Z,18.35
2024-01-18T02:26:55.122Z,18.48
2024-01-18T02:27:27.120Z,18.38
2024-01-18T02:27:59.178Z,18.40
2024-01-18T02:28:30.724Z,18.50
2024-01-18T02:29:02.268Z,18.92
2024-01-18T02:29:33.902Z,17.70
2024-01-18T02:30:06.158Z,18.48
2024-01-18T02:30:37.830Z,18.83
2024-01-18T02:31:09.404Z,19.65
2024-01-18T02:31:40.974Z,19.64
2024-01-18T02:32:12.529Z,19.52
2024-01-18T02:32:44.181Z,18.15
2024-01-18T02:33:15.901Z,18.85
2024-01-18T02:33:47.882Z,18.64
2024-01-18T02:34:19.590Z,20.44
2024-01-18T02:34:51.307Z,19.46
2024-01-18T02:35:22.922Z,17.42
2024-01-18T02:35:54.654Z,20.70
2024-01-18T02:36:26.240Z,18.62
2024-01-18T02:36:57.936Z,18.95
2024-01-18T02:37:29.546Z,18.84
2024-01-18T02:38:01.236Z,21.50
2024-01-18T02:38:32.759Z,19.64
2024-01-18T02:39:04.663Z,19.77
2024-01-18T02:39:36.592Z,19.20
2024-01-18T02:40:08.686Z,17.88
2024-01-18T02:40:40.404Z,19.74
2024-01-18T02:41:11.996Z,18.50
2024-01-18T02:41:43.919Z,18.05
2024-01-18T02:42:15.483Z,20.33
2024-01-18T02:42:47.445Z,19.33
2024-01-18T02:43:19.134Z,18.30
2024-01-18T02:43:50.748Z,18.36
2024-01-18T02:44:22.441Z,19.92
2024-01-18T02:44:55.437Z,17.98
2024-01-18T02:45:27.124Z,19.00
2024-01-18T02:45:58.846Z,18.74
2024-01-18T02:46:33.873Z,18.23
2024-01-18T02:47:05.681Z,19.06
2024-01-18T02:47:37.372Z,18.54
2024-01-18T02:48:09.203Z,18.16
2024-01-18T02:48:40.846Z,18.54
2024-01-18T02:49:12.501Z,18.26
2024-01-18T02:49:44.123Z,19.14
2024-01-18T02:50:15.905Z,20.88
2024-01-18T02:50:47.439Z,20.36
2024-01-18T02:51:19.030Z,19.80
2024-01-18T02:51:50.620Z,18.84
2024-01-18T02:52:22.166Z,19.92
2024-01-18T02:52:53.708Z,18.95
2024-01-18T02:53:25.281Z,19.84
2024-01-18T02:53:56.801Z,20.74
2024-01-18T02:54:28.428Z,19.95
2024-01-18T02:55:00.006Z,20.17
2024-01-18T02:55:31.554Z,21.23
2024-01-18T02:56:03.224Z,19.76
2024-01-18T02:56:34.772Z,20.62
2024-01-18T02:57:06.461Z,20.04
2024-01-18T02:57:38.182Z,19.58
2024-01-18T02:58:09.857Z,19.83
2024-01-18T02:58:41.811Z,19.30
2024-01-18T02:59:13.375Z,21.48
2024-01-18T02:59:44.887Z,19.55
2024-01-18T03:00:16.626Z,19.45
2024-01-18T03:00:48.769Z,19.52
2024-01-18T03:01:20.483Z,18.94
2024-01-18T03:01:52.049Z,19.96
2024-01-18T03:02:23.628Z,20.38
2024-01-18T03:02:55.156Z,18.05
2024-01-18T03:03:26.938Z,21.02
2024-01-18T03:03:58.784Z,21.14
2024-01-18T03:04:30.476Z,19.30
2024-01-18T03:05:02.070Z,18.60
2024-01-18T03:05:35.201Z,18.88
2024-01-18T03:06:07.063Z,19.95
2024-01-18T03:06:38.761Z,21.00
2024-01-18T03:07:10.344Z,20.12
2024-01-18T03:07:41.976Z,19.08
2024-01-18T03:08:13.770Z,18.14
2024-01-18T03:08:45.320Z,19.02
2024-01-18T03:09:16.914Z,18.92
2024-01-18T03:09:49.262Z,20.10
2024-01-18T03:10:23.237Z,20.35
2024-01-18T03:10:55.013Z,19.94
2024-01-18T03:11:26.774Z,20.38
2024-01-18T03:11:58.359Z,18.48
2024-01-18T03:12:30.077Z,19.92
2024-01-18T03:13:01.623Z,20.24
2024-01-18T03:13:33.165Z,18.92
2024-01-18T03:14:04.749Z,18.86
2024-01-18T03:14:38.045Z,19.16
2024-01-18T03:15:11.589Z,19.52
2024-01-18T03:15:43.202Z,18.52
2024-01-18T03:16:16.444Z,20.40
2024-01-18T03:16:48.109Z,19.10
2024-01-18T03:17:19.637Z,19.98
2024-01-18T03:17:51.338Z,17.77
2024-01-18T03:18:22.905Z,20.16
2024-01-18T03:18:54.497Z,21.06
2024-01-18T03:19:26.295Z,17.82
2024-01-18T03:19:58.743Z,20.28
2024-01-18T03:20:30.339Z,20.46
2024-01-18T03:21:06.710Z,18.24
2024-01-18T03:21:38.462Z,17.92
2024-01-18T03:22:10.064Z,19.18
2024-01-18T03:22:42.143Z,17.95
2024-01-18T03:23:13.789Z,18.84
2024-01-18T03:23:45.367Z,19.38
2024-01-18T03:24:17.061Z,19.12
2024-01-18T03:24:48.696Z,17.78
2024-01-18T03:25:20.253Z,20.65
2024-01-18T03:25:51.801Z,18.78
2024-01-18T03:26:23.358Z,21.88
2024-01-18T03:26:55.358Z,18.05
2024-01-18T03:27:27.294Z,20.30
2024-01-18T03:27:59.653Z,19.20
2024-01-18T03:28:31.186Z,19.45
2024-01-18T03:29:02.795Z,20.15
2024-01-18T03:29:34.407Z,19.55
2024-01-18T03:30:08.737Z,20.94
2024-01-18T03:30:41.766Z,19.23
2024-01-18T03:31:13.808Z,20.23
2024-01-18T03:31:45.348Z,21.82
2024-01-18T03:32:16.991Z,19.66
2024-01-18T03:32:48.577Z,18.95
2024-01-18T03:33:20.275Z,20.52
2024-01-18T03:33:51.942Z,18.90
2024-01-18T03:34:23.599Z,21.12
2024-01-18T03:34:55.247Z,19.90
2024-01-18T03:35:26.788Z,21.48
2024-01-18T03:35:58.820Z,20.56
2024-01-18T03:36:30.492Z,20.30
2024-01-18T03:37:02.025Z,21.54
2024-01-18T03:37:33.549Z,20.18
2024-01-18T03:38:05.121Z,21.20
2024-01-18T03:38:37.076Z,21.46
2024-01-18T03:39:10.242Z,20.63
2024-01-18T03:39:41.942Z,19.94
2024-01-18T03:40:13.622Z,20.66
2024-01-18T03:40:45.155Z,21.22
2024-01-18T03:41:16.865Z,20.28
2024-01-18T03:41:48.515Z,20.72
2024-01-18T03:42:20.137Z,19.84
2024-01-18T03:42:51.692Z,19.28
2024-01-18T03:43:23.215Z,19.92
2024-01-18T03:43:54.758Z,19.92
2024-01-18T03:44:26.373Z,18.83
2024-01-18T03:44:57.951Z,18.94
2024-01-18T03:45:29.529Z,18.15
2024-01-18T03:46:01.167Z,21.40
2024-01-18T03:46:32.843Z,18.92
2024-01-18T03:47:04.774Z,17.54
2024-01-18T03:47:36.551Z,18.10
2024-01-18T03:48:08.230Z,19.00
2024-01-18T03:48:39.874Z,20.05
2024-01-18T03:49:11.558Z,19.58
2024-01-18T03:49:44.326Z,20.92
2024-01-18T03:50:16.171Z,19.77
2024-01-18T03:50:47.744Z,18.18
2024-01-18T03:51:19.415Z,19.44
2024-01-18T03:51:51.046Z,20.06
2024-01-18T03:52:22.947Z,18.20
2024-01-18T03:52:54.476Z,18.84
2024-01-18T03:53:26.061Z,21.06
2024-01-18T03:53:57.728Z,18.73
2024-01-18T03:54:29.510Z,18.02
2024-01-18T03:55:01.105Z,18.68
2024-01-18T03:55:32.650Z,18.46
2024-01-18T03:56:04.431Z,19.52
2024-01-18T03:56:36.004Z,19.88
2024-01-18T03:57:07.590Z,16.70
2024-01-18T03:57:40.642Z,18.92
2024-01-18T03:58:12.563Z,18.24
2024-01-18T03:58:44.733Z,16.04
2024-01-18T03:59:16.484Z,16.76
2024-01-18T03:59:48.845Z,17.92
2024-01-18T04:00:20.744Z,17.18
2024-01-18T04:00:52.761Z,19.24
2024-01-18T04:01:24.923Z,19.46
2024-01-18T04:01:57.648Z,17.02
2024-01-18T04:02:29.228Z,18.16
2024-01-18T04:03:00.854Z,17.62
2024-01-18T04:03:32.603Z,18.42
2024-01-18T04:04:04.600Z,17.54
2024-01-18T04:04:36.275Z,18.78
2024-01-18T04:05:08.391Z,17.98
2024-01-18T04:05:40.188Z,17.54
2024-01-18T04:06:13.088Z,19.62
2024-01-18T04:06:45.018Z,18.38
2024-01-18T04:07:17.260Z,18.90
2024-01-18T04:07:48.801Z,18.14
2024-01-18T04:08:20.420Z,17.78
2024-01-18T04:08:52.040Z,20.05
2024-01-18T04:09:23.636Z,18.80
2024-01-18T04:09:55.195Z,17.68
2024-01-18T04:10:26.748Z,18.23
2024-01-18T04:10:58.373Z,19.10
2024-01-18T04:11:30.757Z,17.50
2024-01-18T04:12:02.367Z,18.40
2024-01-18T04:12:33.975Z,19.02
2024-01-18T04:13:05.545Z,17.74
2024-01-18T04:13:37.086Z,17.60
2024-01-18T04:14:08.941Z,18.08
2024-01-18T04:14:44.237Z,19.02
2024-01-18T04:15:15.891Z,17.70
2024-01-18T04:15:47.502Z,19.02
2024-01-18T04:16:19.430Z,18.10
2024-01-18T04:16:50.944Z,17.84
2024-01-18T04:17:22.518Z,19.20
2024-01-18T04:17:54.117Z,19.34
2024-01-18T04:18:25.807Z,17.06
2024-01-18T04:18:57.615Z,18.00
2024-01-18T04:19:29.280Z,18.26
2024-01-18T04:20:01.668Z,18.62
2024-01-18T04:20:33.586Z,19.30
2024-01-18T04:21:05.452Z,17.56
2024-01-18T04:21:37.195Z,18.30
2024-01-18T04:22:09.059Z,17.78
2024-01-18T04:22:40.641Z,16.74
2024-01-18T04:23:12.249Z,17.68
2024-01-18T04:23:43.894Z,18.78
2024-01-18T04:24:15.480Z,18.40
2024-01-18T04:24:47.096Z,18.40
2024-01-18T04:25:18.682Z,17.58
2024-01-18T04:25:53.457Z,17.72
2024-01-18T04:26:26.115Z,17.88
2024-01-18T04:26:57.822Z,19.38
2024-01-18T04:27:29.610Z,17.96
2024-01-18T04:28:01.358Z,18.20
2024-01-18T04:28:33.014Z,17.84
2024-01-18T04:29:04.678Z,16.98
2024-01-18T04:29:36.323Z,17.88
2024-01-18T04:30:09.519Z,16.62
2024-01-18T04:30:41.353Z,17.88
2024-01-18T04:31:13.031Z,15.64
2024-01-18T04:31:45.064Z,17.56
2024-01-18T04:32:16.721Z,17.25
2024-01-18T04:32:48.296Z,17.74
2024-01-18T04:33:20.189Z,17.72
2024-01-18T04:33:52.013Z,17.46
2024-01-18T04:34:23.716Z,18.48
2024-01-18T04:34:55.301Z,16.76
2024-01-18T04:35:26.978Z,18.18
2024-01-18T04:35:59.113Z,18.02
2024-01-18T04:36:30.725Z,16.76
2024-01-18T04:37:02.284Z,18.70
2024-01-18T04:37:33.885Z,17.72
2024-01-18T04:38:05.496Z,17.42
2024-01-18T04:38:38.421Z,19.50
2024-01-18T04:39:10.669Z,17.44
2024-01-18T04:39:42.525Z,19.06
2024-01-18T04:40:14.119Z,18.68
2024-01-18T04:40:45.832Z,18.60
2024-01-18T04:41:17.407Z,20.18
2024-01-18T04:41:48.969Z,18.04
2024-01-18T04:42:21.240Z,17.38
2024-01-18T04:42:54.012Z,17.64
2024-01-18T04:43:25.589Z,18.74
2024-01-18T04:43:57.134Z,16.40
2024-01-18T04:44:28.727Z,18.58
2024-01-18T04:45:00.567Z,17.80
2024-01-18T04:45:32.313Z,17.48
2024-01-18T04:46:05.480Z,18.22
2024-01-18T04:46:37.158Z,17.88
2024-01-18T04:47:09.919Z,18.24
2024-01-18T04:47:42.294Z,17.66
2024-01-18T04:48:14.050Z,18.52
2024-01-18T04:48:46.069Z,17.34
2024-01-18T04:49:17.664Z,16.78
2024-01-18T04:49:49.281Z,19.46
2024-01-18T04:50:25.422Z,18.58
2024-01-18T04:50:57.000Z,19.40
2024-01-18T04:51:28.948Z,20.38
2024-01-18T04:52:01.198Z,20.00
2024-01-18T04:52:33.514Z,19.28
2024-01-18T04:53:05.147Z,18.30
2024-01-18T04:53:36.714Z,18.48
2024-01-18T04:54:08.422Z,17.92
2024-01-18T04:54:42.694Z,17.82
2024-01-18T04:55:14.307Z,17.88
2024-01-18T04:55:45.891Z,18.34
2024-01-18T04:56:17.686Z,18.86
2024-01-18T04:56:49.315Z,18.88
2024-01-18T04:57:20.919Z,19.84
2024-01-18T04:57:52.543Z,19.86
2024-01-18T04:58:24.177Z,17.50
2024-01-18T04:58:55.742Z,19.48
2024-01-18T04:59:27.387Z,18.58
2024-01-18T04:59:59.481Z,18.42
2024-01-18T05:00:31.154Z,19.62
2024-01-18T05:01:03.151Z,18.46
2024-01-18T05:01:38.613Z,19.42
2024-01-18T05:02:10.564Z,17.56
2024-01-18T05:02:42.790Z,16.88
2024-01-18T05:03:14.517Z,19.16
2024-01-18T05:03:49.120Z,17.94
2024-01-18T05:04:20.879Z,18.58
2024-01-18T05:04:52.639Z,16.50
2024-01-18T05:05:24.374Z,17.22
2024-01-18T05:05:58.988Z,17.42
2024-01-18T05:06:31.250Z,17.08
2024-01-18T05:07:03.068Z,18.68
2024-01-18T05:07:35.618Z,16.42
2024-01-18T05:08:08.545Z,17.30
2024-01-18T05:08:40.112Z,17.56
2024-01-18T05:09:11.658Z,18.68
2024-01-18T05:09:43.603Z,18.38
2024-01-18T05:10:15.203Z,17.76
2024-01-18T05:10:46.728Z,16.54
2024-01-18T05:11:18.317Z,16.90
2024-01-18T05:11:49.857Z,18.86
2024-01-18T05:12:21.443Z,17.68
2024-01-18T05:12:53.410Z,17.46
2024-01-18T05:13:25.016Z,16.96
2024-01-18T05:13:56.728Z,17.22
2024-01-18T05:14:28.516Z,18.18
2024-01-18T05:15:00.064Z,17.08
2024-01-18T05:15:31.972Z,17.62
2024-01-18T05:16:03.749Z,16.60
2024-01-18T05:16:40.712Z,16.22
2024-01-18T05:17:13.105Z,16.48
2024-01-18T05:17:48.463Z,16.58
2024-01-18T05:18:20.548Z,16.68
2024-01-18T05:18:52.183Z,15.64
2024-01-18T05:19:23.748Z,15.90
2024-01-18T05:19:55.971Z,15.36
2024-01-18T05:20:27.864Z,16.38
2024-01-18T05:21:00.168Z,16.33
2024-01-18T05:21:31.752Z,17.90
2024-01-18T05:22:03.410Z,16.32
2024-01-18T05:22:35.898Z,18.08
2024-01-18T05:23:07.536Z,16.68
2024-01-18T05:23:39.068Z,16.18
2024-01-18T05:24:10.591Z,15.90
2024-01-18T05:24:42.454Z,17.16
2024-01-18T05:25:14.996Z,16.52
2024-01-18T05:25:46.644Z,15.78
2024-01-18T05:26:18.198Z,16.56
2024-01-18T05:26:49.719Z,16.28
2024-01-18T05:27:21.360Z,17.72
2024-01-18T05:27:53.019Z,17.48
2024-01-18T05:28:25.036Z,17.78
2024-01-18T05:28:56.931Z,17.74
2024-01-18T05:29:28.484Z,16.94
2024-01-18T05:30:01.027Z,17.40
2024-01-18T05:30:32.859Z,17.44
2024-01-18T05:31:04.680Z,16.28
2024-01-18T05:31:36.281Z,15.80
2024-01-18T05:32:07.850Z,16.80
2024-01-18T05:32:39.481Z,16.42
2024-01-18T05:33:11.140Z,17.48
2024-01-18T05:33:42.797Z,16.68
2024-01-18T05:34:14.694Z,16.12
2024-01-18T05:34:46.348Z,15.86
2024-01-18T05:35:18.041Z,15.96
2024-01-18T05:35:50.672Z,17.22
2024-01-18T05:36:22.379Z,17.88
2024-01-18T05:36:53.930Z,15.94
2024-01-18T05:37:25.603Z,18.90
2024-01-18T05:37:57.145Z,15.12
2024-01-18T05:38:34.728Z,16.50
2024-01-18T05:39:09.868Z,17.18
2024-01-18T05:39:41.504Z,16.68
2024-01-18T05:40:13.594Z,17.68
2024-01-18T05:40:46.577Z,15.88
2024-01-18T05:41:18.151Z,15.72
2024-01-18T05:41:49.708Z,16.34
2024-01-18T05:42:21.585Z,17.50
2024-01-18T05:42:53.477Z,16.20
2024-01-18T05:43:25.060Z,17.60
2024-01-18T05:43:56.604Z,16.70
2024-01-18T05:44:29.752Z,16.60
2024-01-18T05:45:01.444Z,18.02
2024-01-18T05:45:33.179Z,16.70
2024-01-18T05:46:05.182Z,15.44
2024-01-18T05:46:36.787Z,17.28
2024-01-18T05:47:09.354Z,15.34
2024-01-18T05:47:41.206Z,15.28
2024-01-18T05:48:13.202Z,16.24
2024-01-18T05:48:45.151Z,17.20
2024-01-18T05:49:16.858Z,14.74
2024-01-18T05:49:48.562Z,15.66
2024-01-18T05:50:20.197Z,16.18
2024-01-18T05:50:51.804Z,15.48
2024-01-18T05:51:23.391Z,15.64
2024-01-18T05:51:55.060Z,15.74
2024-01-18T05:52:28.795Z,15.50
2024-01-18T05:53:00.375Z,15.94
2024-01-18T05:53:32.049Z,15.88
2024-01-18T05:54:03.837Z,16.40
2024-01-18T05:54:35.529Z,15.60
2024-01-18T05:55:07.496Z,14.92
2024-01-18T05:55:39.072Z,14.78
2024-01-18T05:56:10.983Z,16.32
2024-01-18T05:56:42.800Z,16.28
2024-01-18T05:57:14.493Z,15.60
2024-01-18T05:57:46.437Z,15.08
2024-01-18T05:58:18.088Z,15.70
2024-01-18T05:58:50.367Z,16.12
2024-01-18T05:59:21.959Z,16.02
2024-01-18T05:59:54.115Z,14.30
2024-01-18T06:00:25.755Z,14.64
2024-01-18T06:00:57.443Z,15.26
2024-01-18T06:01:29.058Z,15.20
2024-01-18T06:02:01.033Z,15.54
2024-01-18T06:02:33.107Z,17.06
2024-01-18T06:03:04.751Z,16.02
2024-01-18T06:03:36.818Z,14.58
2024-01-18T06:04:08.520Z,14.70
2024-01-18T06:04:40.127Z,15.22
2024-01-18T06:05:13.030Z,15.12
2024-01-18T06:05:44.815Z,14.56
2024-01-18T06:06:16.684Z,15.64
2024-01-18T06:06:48.708Z,14.30
2024-01-18T06:07:20.508Z,15.78
2024-01-18T06:07:52.851Z,15.94
2024-01-18T06:08:24.439Z,16.32
2024-01-18T06:08:55.964Z,15.56
2024-01-18T06:09:27.634Z,15.68
2024-01-18T06:10:00.689Z,15.86
2024-01-18T06:10:32.581Z,14.40
2024-01-18T06:11:04.446Z,15.30
2024-01-18T06:11:36.344Z,13.54
2024-01-18T06:12:08.077Z,14.02
2024-01-18T06:12:39.884Z,14.74
2024-01-18T06:13:11.575Z,15.10
2024-01-18T06:13:43.101Z,14.06
2024-01-18T06:14:14.760Z,14.32
2024-01-18T06:14:46.294Z,14.44
2024-01-18T06:15:19.669Z,15.02
2024-01-18T06:15:51.554Z,15.30
2024-01-18T06:16:23.154Z,15.02
2024-01-18T06:16:54.816Z,15.94
2024-01-18T06:17:26.391Z,15.28
2024-01-18T06:18:04.773Z,15.00
2024-01-18T06:18:37.265Z,14.28
2024-01-18T06:19:09.530Z,14.00
2024-01-18T06:19:41.410Z,15.62
2024-01-18T06:20:16.123Z,13.84
2024-01-18T06:20:48.189Z,16.96
2024-01-18T06:21:20.684Z,15.24
2024-01-18T06:21:52.351Z,14.72
2024-01-18T06:22:24.140Z,14.32
2024-01-18T06:22:55.760Z,15.68
2024-01-18T06:23:27.289Z,14.80
2024-01-18T06:23:58.850Z,13.32
2024-01-18T06:24:31.308Z,16.44
2024-01-18T06:25:04.586Z,14.98
2024-01-18T06:25:36.211Z,13.74
2024-01-18T06:26:14.112Z,13.74
2024-01-18T06:26:46.310Z,13.66
2024-01-18T06:27:18.602Z,14.54
2024-01-18T06:27:50.325Z,13.80
2024-01-18T06:28:22.434Z,13.42
2024-01-18T06:28:54.014Z,13.24
2024-01-18T06:29:31.295Z,13.88
2024-01-18T06:30:02.989Z,14.60
2024-01-18T06:30:34.688Z,15.36
2024-01-18T06:31:06.697Z,13.82
2024-01-18T06:31:38.336Z,15.06
2024-01-18T06:32:09.912Z,13.58
2024-01-18T06:32:41.668Z,15.26
2024-01-18T06:33:13.661Z,14.80
2024-01-18T06:33:45.373Z,14.56
2024-01-18T06:34:18.028Z,14.68
2024-01-18T06:34:49.739Z,13.30
2024-01-18T06:35:21.420Z,12.50
2024-01-18T06:35:53.523Z,14.24
2024-01-18T06:36:25.178Z,14.12
2024-01-18T06:36:56.729Z,14.12
2024-01-18T06:37:28.264Z,13.22
2024-01-18T06:37:59.908Z,11.60
2024-01-18T06:38:31.543Z,13.28
2024-01-18T06:39:03.292Z,13.42
2024-01-18T06:39:35.056Z,14.64
2024-01-18T06:40:10.076Z,14.20
2024-01-18T06:40:44.568Z,12.88
2024-01-18T06:41:16.684Z,15.16
2024-01-18T06:41:48.617Z,14.88
2024-01-18T06:42:21.576Z,14.48
2024-01-18T06:42:53.231Z,14.28
2024-01-18T06:43:26.263Z,14.02
2024-01-18T06:43:57.789Z,13.46
2024-01-18T06:44:29.606Z,13.24
2024-01-18T06:45:01.672Z,15.56
2024-01-18T06:45:33.378Z,14.50
2024-01-18T06:46:05.130Z,15.18
2024-01-18T06:46:36.726Z,14.24
2024-01-18T06:47:10.686Z,15.44
2024-01-18T06:47:44.098Z,13.96
2024-01-18T06:48:15.765Z,14.22
2024-01-18T06:48:54.592Z,14.54
2024-01-18T06:49:26.630Z,13.06
2024-01-18T06:49:58.536Z,12.94
2024-01-18T06:50:30.504Z,14.50
2024-01-18T06:51:02.069Z,12.46
2024-01-18T06:51:33.735Z,13.26
2024-01-18T06:52:05.616Z,13.88
2024-01-18T06:52:37.438Z,13.74
2024-01-18T06:53:09.007Z,14.08